Time;durP1;ratioP1;P1;durP2;ratioP2;P2;SDS_P1;SDS_P2;PMS_P1;PMS_P2;Temp;Humidity;BMP_temperature;BMP_pressure;BME280_temperature;BME280_humidity;BME280_pressure;Samples;Min_cycle;Max_cycle;Signal;HPM_P1;HPM_P2
2021/12/31 00:00:56;;;;;;;5.27;3.03;;;;;;;;;;4933640;29;20229;-75
2021/12/31 00:03:21;;;;;;;1.63;1.20;;;;;;;;;;4949704;29;20183;-75
2021/12/31 00:05:46;;;;;;;2.33;1.40;;;;;;;;;;4933781;29;20182;-75
2021/12/31 00:08:11;;;;;;;1.90;1.40;;;;;;;;;;4949665;28;20185;-75
2021/12/31 00:10:37;;;;;;;1.30;1.10;;;;;;;;;;4949493;28;20213;-75
2021/12/31 00:13:03;;;;;;;2.63;1.10;;;;;;;;;;4934740;29;20222;-75
2021/12/31 00:15:28;;;;;;;2.20;1.13;;;;;;;;;;4931642;29;20492;-75
2021/12/31 00:17:53;;;;;;;1.43;1.33;;;;;;;;;;4933653;29;20361;-75
2021/12/31 00:20:23;;;;;;;1.10;1.00;;;;;;;;;;4934927;29;20210;-75
2021/12/31 00:25:29;;;;;;;2.47;1.27;;;;;;;;;;4931973;29;20198;-75
2021/12/31 00:27:54;;;;;;;1.60;1.50;;;;;;;;;;4933947;29;21010;-75
2021/12/31 00:30:20;;;;;;;1.23;1.10;;;;;;;;;;4932236;29;20213;-75
2021/12/31 00:32:45;;;;;;;1.77;1.00;;;;;;;;;;4933612;29;20182;-75
2021/12/31 00:35:10;;;;;;;1.27;0.93;;;;;;;;;;4933666;29;20233;-75
2021/12/31 00:37:37;;;;;;;1.50;1.40;;;;;;;;;;4934744;29;20182;-74
2021/12/31 00:40:03;;;;;;;1.93;1.30;;;;;;;;;;4935223;29;20180;-75
2021/12/31 00:42:31;;;;;;;1.20;1.10;;;;;;;;;;4933519;29;20273;-74
2021/12/31 00:44:56;;;;;;;5.23;3.07;;;;;;;;;;4933052;29;20190;-75
2021/12/31 00:47:21;;;;;;;4.07;2.40;;;;;;;;;;4937120;29;20174;-75
2021/12/31 00:49:46;;;;;;;6.90;2.60;;;;;;;;;;4934730;29;20253;-75
2021/12/31 00:52:12;;;;;;;2.50;2.00;;;;;;;;;;4934852;29;20274;-75
2021/12/31 00:54:38;;;;;;;2.57;2.10;;;;;;;;;;4931726;29;20209;-74
2021/12/31 00:57:04;;;;;;;4.37;1.90;;;;;;;;;;4935041;29;20181;-75
2021/12/31 00:59:30;;;;;;;1.77;1.60;;;;;;;;;;4933418;29;20261;-75
2021/12/31 01:01:55;;;;;;;2.03;1.67;;;;;;;;;;4933987;28;20189;-75
2021/12/31 01:04:21;;;;;;;1.57;1.40;;;;;;;;;;4933084;29;20186;-75
2021/12/31 01:06:47;;;;;;;1.90;1.70;;;;;;;;;;4933191;29;20506;-75
2021/12/31 01:09:12;;;;;;;1.67;1.37;;;;;;;;;;4934277;29;20211;-75
2021/12/31 01:11:41;;;;;;;3.67;1.40;;;;;;;;;;4937293;29;20187;-75
2021/12/31 01:14:14;;;;;;;1.70;1.20;;;;;;;;;;4947485;28;20182;-75
2021/12/31 01:16:46;;;;;;;1.70;1.40;;;;;;;;;;4934657;29;20206;-75
2021/12/31 01:21:36;;;;;;;3.73;1.40;;;;;;;;;;4937924;29;20193;-74
2021/12/31 01:24:02;;;;;;;3.97;1.47;;;;;;;;;;4931540;29;20186;-75
2021/12/31 01:26:27;;;;;;;1.40;1.27;;;;;;;;;;4941937;28;20178;-75
2021/12/31 01:28:52;;;;;;;1.50;1.40;;;;;;;;;;4933857;29;20216;-75
2021/12/31 01:31:18;;;;;;;1.80;1.60;;;;;;;;;;4934254;29;20190;-75
2021/12/31 01:33:43;;;;;;;2.60;1.50;;;;;;;;;;4933022;29;20237;-75
2021/12/31 01:36:09;;;;;;;1.50;1.40;;;;;;;;;;4933412;29;20202;-75
2021/12/31 01:38:35;;;;;;;4.03;1.30;;;;;;;;;;4933084;29;20186;-75
2021/12/31 01:41:00;;;;;;;1.40;1.30;;;;;;;;;;4935227;29;20170;-75
2021/12/31 01:43:26;;;;;;;1.97;1.53;;;;;;;;;;4933983;29;20178;-75
2021/12/31 01:45:55;;;;;;;1.70;1.60;;;;;;;;;;4934689;29;20190;-75
2021/12/31 01:48:24;;;;;;;2.33;1.70;;;;;;;;;;4952030;29;20222;-75
2021/12/31 01:50:49;;;;;;;2.63;1.50;;;;;;;;;;4937242;29;20261;-75
2021/12/31 01:53:16;;;;;;;1.70;1.60;;;;;;;;;;4936806;29;20175;-75
2021/12/31 01:55:42;;;;;;;1.60;1.50;;;;;;;;;;4936574;29;20185;-75
2021/12/31 01:58:09;;;;;;;1.50;1.40;;;;;;;;;;4935516;29;20189;-75
2021/12/31 02:00:34;;;;;;;5.57;3.33;;;;;;;;;;4940870;29;20196;-75
2021/12/31 02:03:00;;;;;;;1.70;1.60;;;;;;;;;;4932133;29;20260;-75
2021/12/31 02:05:26;;;;;;;1.53;1.43;;;;;;;;;;4936160;29;20452;-75
2021/12/31 02:07:51;;;;;;;1.50;1.40;;;;;;;;;;4936319;29;20197;-75
2021/12/31 02:10:16;;;;;;;1.73;1.50;;;;;;;;;;4936827;29;20235;-75
2021/12/31 02:12:42;;;;;;;2.73;1.70;;;;;;;;;;4935983;29;20186;-75
2021/12/31 02:15:08;;;;;;;1.63;1.50;;;;;;;;;;4935840;29;20185;-75
2021/12/31 02:17:33;;;;;;;1.70;1.60;;;;;;;;;;4951493;29;20205;-75
2021/12/31 02:20:04;;;;;;;1.33;1.23;;;;;;;;;;4932825;29;20213;-75
2021/12/31 02:22:29;;;;;;;1.60;1.40;;;;;;;;;;4936699;29;20190;-75
2021/12/31 02:24:56;;;;;;;2.83;1.87;;;;;;;;;;4933984;29;20185;-75
2021/12/31 02:27:21;;;;;;;1.70;1.60;;;;;;;;;;4940870;29;20182;-75
2021/12/31 02:29:47;;;;;;;4.60;1.60;;;;;;;;;;4948698;29;20250;-75
2021/12/31 02:32:12;;;;;;;1.77;1.57;;;;;;;;;;4937601;29;20240;-75
2021/12/31 02:34:37;;;;;;;3.57;1.90;;;;;;;;;;4934796;29;20327;-75
2021/12/31 02:37:02;;;;;;;1.97;1.57;;;;;;;;;;4937195;29;20179;-75
2021/12/31 02:39:28;;;;;;;1.60;1.50;;;;;;;;;;4937009;28;20181;-75
2021/12/31 02:41:53;;;;;;;1.73;1.50;;;;;;;;;;4937122;29;20200;-75
2021/12/31 02:44:18;;;;;;;6.00;2.20;;;;;;;;;;4935548;29;20206;-75
2021/12/31 02:46:43;;;;;;;2.23;2.03;;;;;;;;;;4939883;29;20186;-75
2021/12/31 02:49:08;;;;;;;2.93;1.83;;;;;;;;;;4935111;29;20291;-75
2021/12/31 02:51:34;;;;;;;3.13;1.80;;;;;;;;;;4933431;29;20178;-75
2021/12/31 02:54:03;;;;;;;2.60;2.13;;;;;;;;;;4951576;28;20175;-75
2021/12/31 02:56:29;;;;;;;1.87;1.77;;;;;;;;;;4935448;29;20199;-75
2021/12/31 02:58:54;;;;;;;3.13;2.30;;;;;;;;;;4935168;29;20188;-75
2021/12/31 03:01:20;;;;;;;2.33;2.13;;;;;;;;;;4935833;29;20196;-75
2021/12/31 03:03:45;;;;;;;2.20;2.00;;;;;;;;;;4934916;29;20277;-75
2021/12/31 03:06:11;;;;;;;2.20;1.93;;;;;;;;;;4939115;29;20216;-75
2021/12/31 03:08:41;;;;;;;2.93;2.23;;;;;;;;;;4934704;29;20219;-75
2021/12/31 03:11:06;;;;;;;2.80;2.30;;;;;;;;;;4935186;29;20186;-75
2021/12/31 03:13:33;;;;;;;2.17;1.93;;;;;;;;;;4935688;29;20176;-75
2021/12/31 03:15:59;;;;;;;2.97;2.37;;;;;;;;;;4934483;29;20439;-75
2021/12/31 03:18:25;;;;;;;2.40;2.20;;;;;;;;;;4935956;29;20203;-75
2021/12/31 03:23:52;;;;;;;4.37;2.67;;;;;;;;;;4949277;29;20203;-75
2021/12/31 03:26:18;;;;;;;3.00;2.70;;;;;;;;;;4944110;29;20188;-75
2021/12/31 03:28:43;;;;;;;3.13;2.60;;;;;;;;;;4935069;29;20188;-75
2021/12/31 03:31:08;;;;;;;3.73;2.47;;;;;;;;;;4929778;29;20242;-75
2021/12/31 03:33:34;;;;;;;4.40;2.63;;;;;;;;;;4935934;28;20294;-75
2021/12/31 03:35:59;;;;;;;3.80;2.80;;;;;;;;;;4936132;29;20208;-75
2021/12/31 03:38:24;;;;;;;3.60;3.07;;;;;;;;;;4936738;29;20258;-75
2021/12/31 03:40:50;;;;;;;3.07;2.80;;;;;;;;;;4935163;29;20198;-75
2021/12/31 03:43:15;;;;;;;6.13;3.23;;;;;;;;;;4936486;29;20271;-75
2021/12/31 03:45:40;;;;;;;4.63;3.03;;;;;;;;;;4948957;29;20276;-75
2021/12/31 03:48:05;;;;;;;3.47;3.17;;;;;;;;;;4935857;29;20279;-75
2021/12/31 03:50:31;;;;;;;3.63;2.60;;;;;;;;;;4951201;29;20370;-75
2021/12/31 03:52:56;;;;;;;5.03;3.20;;;;;;;;;;4935862;29;20188;-75
2021/12/31 03:55:21;;;;;;;3.00;2.67;;;;;;;;;;4952271;29;20222;-75
2021/12/31 03:57:46;;;;;;;3.77;2.73;;;;;;;;;;4940933;28;20202;-75
2021/12/31 04:00:12;;;;;;;3.27;2.60;;;;;;;;;;4952600;29;20183;-75
2021/12/31 04:02:37;;;;;;;2.33;1.90;;;;;;;;;;4935154;28;20194;-75
2021/12/31 04:05:03;;;;;;;2.30;2.10;;;;;;;;;;4935487;29;20189;-75
2021/12/31 04:07:28;;;;;;;2.67;2.43;;;;;;;;;;4932947;29;20185;-75
2021/12/31 04:09:53;;;;;;;2.57;2.37;;;;;;;;;;4935933;29;20210;-75
2021/12/31 04:12:18;;;;;;;2.83;2.00;;;;;;;;;;4936660;29;20232;-75
2021/12/31 04:14:44;;;;;;;3.00;2.40;;;;;;;;;;4934077;29;20180;-75
2021/12/31 04:17:09;;;;;;;2.50;2.30;;;;;;;;;;4929034;29;20203;-75
2021/12/31 04:19:35;;;;;;;4.50;2.63;;;;;;;;;;4933799;29;20171;-75
2021/12/31 04:22:00;;;;;;;2.77;2.20;;;;;;;;;;4934290;29;20191;-75
2021/12/31 04:26:53;;;;;;;3.57;1.90;;;;;;;;;;4935081;29;20244;-75
2021/12/31 04:29:18;;;;;;;2.20;1.97;;;;;;;;;;4934040;29;20199;-75
2021/12/31 04:31:44;;;;;;;1.87;1.67;;;;;;;;;;4933719;29;20183;-75
2021/12/31 04:34:09;;;;;;;1.93;1.70;;;;;;;;;;4932419;29;20314;-75
2021/12/31 04:36:34;;;;;;;1.93;1.70;;;;;;;;;;4933520;29;20192;-75
2021/12/31 04:38:59;;;;;;;2.47;1.70;;;;;;;;;;4941537;29;20189;-75
2021/12/31 04:41:24;;;;;;;1.87;1.77;;;;;;;;;;4935038;29;20215;-75
2021/12/31 04:43:50;;;;;;;1.87;1.77;;;;;;;;;;4933482;29;20193;-75
2021/12/31 04:46:15;;;;;;;2.83;1.70;;;;;;;;;;4934545;29;20199;-75
2021/12/31 04:48:40;;;;;;;4.17;2.10;;;;;;;;;;4933244;29;20374;-75
2021/12/31 04:51:05;;;;;;;2.80;1.70;;;;;;;;;;4933661;29;20230;-75
2021/12/31 04:53:30;;;;;;;2.17;1.93;;;;;;;;;;4933004;29;20183;-74
2021/12/31 04:55:56;;;;;;;2.43;1.87;;;;;;;;;;4949773;29;20179;-74
2021/12/31 04:58:21;;;;;;;2.40;1.80;;;;;;;;;;4934870;29;20222;-75
2021/12/31 05:00:46;;;;;;;2.00;1.70;;;;;;;;;;4934162;29;20203;-75
2021/12/31 05:03:11;;;;;;;2.30;1.90;;;;;;;;;;4950070;29;20178;-74
2021/12/31 05:05:39;;;;;;;2.90;1.80;;;;;;;;;;4932792;29;20189;-75
2021/12/31 05:08:04;;;;;;;2.17;1.97;;;;;;;;;;4929750;29;20184;-75
2021/12/31 05:10:31;;;;;;;2.30;1.80;;;;;;;;;;4932973;29;20217;-75
2021/12/31 05:12:57;;;;;;;2.40;2.17;;;;;;;;;;4934169;29;20185;-74
2021/12/31 05:15:27;;;;;;;2.47;1.90;;;;;;;;;;4933376;29;20246;-74
2021/12/31 05:17:52;;;;;;;2.07;1.87;;;;;;;;;;4935236;29;20185;-75
2021/12/31 05:20:18;;;;;;;2.37;1.90;;;;;;;;;;4932647;29;20189;-75
2021/12/31 05:22:46;;;;;;;2.10;1.70;;;;;;;;;;4935808;28;20315;-75
2021/12/31 05:25:11;;;;;;;3.20;1.80;;;;;;;;;;4952103;29;20191;-75
2021/12/31 05:27:36;;;;;;;3.07;1.90;;;;;;;;;;4950473;28;20183;-74
2021/12/31 05:30:02;;;;;;;3.83;2.30;;;;;;;;;;4934204;29;20300;-75
2021/12/31 05:32:27;;;;;;;3.50;2.30;;;;;;;;;;4938980;28;20180;-74
2021/12/31 05:34:52;;;;;;;5.77;2.07;;;;;;;;;;4938309;29;20235;-75
2021/12/31 05:37:18;;;;;;;3.00;2.00;;;;;;;;;;4936804;29;20177;-75
2021/12/31 05:39:44;;;;;;;1.80;1.67;;;;;;;;;;4937864;29;20193;-75
2021/12/31 05:42:09;;;;;;;5.17;1.93;;;;;;;;;;4939683;28;20182;-75
2021/12/31 05:44:35;;;;;;;2.80;1.87;;;;;;;;;;4937960;29;20184;-75
2021/12/31 05:47:00;;;;;;;2.77;2.30;;;;;;;;;;4940181;29;20241;-75
2021/12/31 05:49:25;;;;;;;2.30;2.10;;;;;;;;;;4952380;28;20210;-75
2021/12/31 05:51:50;;;;;;;5.33;2.03;;;;;;;;;;4941450;29;20177;-74
2021/12/31 05:54:16;;;;;;;2.23;2.00;;;;;;;;;;4936808;29;20193;-74
2021/12/31 05:56:41;;;;;;;3.73;1.90;;;;;;;;;;4937544;29;20186;-75
2021/12/31 05:59:06;;;;;;;2.80;1.87;;;;;;;;;;4931548;29;20334;-75
2021/12/31 06:01:31;;;;;;;3.53;1.83;;;;;;;;;;4934058;29;20188;-74
2021/12/31 06:03:56;;;;;;;4.00;2.30;;;;;;;;;;4937310;29;20217;-75
2021/12/31 06:06:22;;;;;;;3.03;2.43;;;;;;;;;;4944076;29;20273;-75
2021/12/31 06:08:47;;;;;;;3.37;2.00;;;;;;;;;;4952615;28;20196;-74
2021/12/31 06:11:12;;;;;;;3.60;2.40;;;;;;;;;;4935479;29;20216;-74
2021/12/31 06:13:37;;;;;;;2.67;1.70;;;;;;;;;;4935770;29;20183;-75
2021/12/31 06:16:04;;;;;;;2.63;2.40;;;;;;;;;;4937446;29;20176;-74
2021/12/31 06:18:30;;;;;;;2.63;2.27;;;;;;;;;;4952259;28;20185;-75
2021/12/31 06:20:55;;;;;;;3.33;2.30;;;;;;;;;;4939188;29;20196;-75
2021/12/31 06:23:20;;;;;;;2.83;2.20;;;;;;;;;;4929350;29;20182;-74
2021/12/31 06:25:45;;;;;;;2.87;2.17;;;;;;;;;;4941599;29;20180;-74
2021/12/31 06:28:11;;;;;;;2.93;2.10;;;;;;;;;;4936903;29;20180;-74
2021/12/31 06:30:36;;;;;;;2.17;1.90;;;;;;;;;;4935898;29;20285;-75
2021/12/31 06:33:01;;;;;;;4.90;2.60;;;;;;;;;;4935134;29;20211;-75
2021/12/31 06:35:26;;;;;;;5.23;2.90;;;;;;;;;;4935929;29;20228;-75
2021/12/31 06:37:53;;;;;;;3.67;2.47;;;;;;;;;;4951320;29;20184;-74
2021/12/31 06:40:18;;;;;;;7.33;2.80;;;;;;;;;;4936441;29;20190;-74
2021/12/31 06:42:44;;;;;;;2.67;2.23;;;;;;;;;;4935595;29;20184;-74
2021/12/31 06:45:09;;;;;;;2.60;2.40;;;;;;;;;;4937351;29;20181;-75
2021/12/31 06:47:34;;;;;;;3.03;2.30;;;;;;;;;;4933579;28;20183;-74
2021/12/31 06:50:00;;;;;;;3.30;2.30;;;;;;;;;;4935230;29;20205;-74
2021/12/31 06:52:25;;;;;;;2.77;2.20;;;;;;;;;;4937288;29;20190;-75
2021/12/31 06:54:50;;;;;;;4.87;2.23;;;;;;;;;;4933423;29;20182;-75
2021/12/31 06:57:15;;;;;;;3.90;3.60;;;;;;;;;;4935208;29;20184;-75
2021/12/31 06:59:40;;;;;;;3.63;2.57;;;;;;;;;;4950994;29;20218;-74
2021/12/31 07:02:06;;;;;;;3.40;2.13;;;;;;;;;;4938291;29;20189;-75
2021/12/31 07:04:31;;;;;;;2.87;2.30;;;;;;;;;;4936743;29;20185;-74
2021/12/31 07:06:56;;;;;;;5.33;2.50;;;;;;;;;;4949483;29;20188;-74
2021/12/31 07:09:22;;;;;;;7.13;3.03;;;;;;;;;;4937164;29;20206;-75
2021/12/31 07:11:47;;;;;;;3.17;2.22;;;;;;;;;;4933477;29;20186;-74
2021/12/31 07:14:12;;;;;;;4.70;2.27;;;;;;;;;;4930289;29;20178;-75
2021/12/31 07:16:37;;;;;;;2.90;2.20;;;;;;;;;;4928081;28;20545;-75
2021/12/31 07:19:03;;;;;;;4.17;2.93;;;;;;;;;;4942658;29;20189;-75
2021/12/31 07:21:28;;;;;;;4.33;2.63;;;;;;;;;;4948305;29;20184;-74
2021/12/31 07:23:53;;;;;;;3.47;2.60;;;;;;;;;;4935596;29;20174;-75
2021/12/31 07:26:18;;;;;;;3.43;2.53;;;;;;;;;;4934032;29;20185;-74
2021/12/31 07:28:43;;;;;;;4.87;2.53;;;;;;;;;;4932333;29;20211;-74
2021/12/31 07:31:12;;;;;;;3.67;2.50;;;;;;;;;;4933345;29;20225;-74
2021/12/31 07:33:38;;;;;;;13.77;11.23;;;;;;;;;;4930964;29;20290;-74
2021/12/31 07:36:03;;;;;;;19.73;12.57;;;;;;;;;;4934214;29;20179;-74
2021/12/31 07:38:33;;;;;;;9.93;8.60;;;;;;;;;;4934413;29;20181;-74
2021/12/31 07:40:58;;;;;;;10.10;7.63;;;;;;;;;;4935428;29;20190;-74
2021/12/31 07:43:23;;;;;;;7.83;6.77;;;;;;;;;;4933815;29;20183;-74
2021/12/31 07:45:53;;;;;;;8.13;6.70;;;;;;;;;;4932836;29;20182;-74
2021/12/31 07:48:18;;;;;;;7.77;5.00;;;;;;;;;;4934308;29;20248;-74
2021/12/31 07:50:43;;;;;;;5.10;4.60;;;;;;;;;;4932130;29;20202;-75
2021/12/31 07:53:08;;;;;;;6.60;3.87;;;;;;;;;;4949605;28;20185;-74
2021/12/31 07:55:34;;;;;;;6.03;4.10;;;;;;;;;;4933655;29;20217;-74
2021/12/31 07:58:00;;;;;;;4.77;3.67;;;;;;;;;;4934153;29;20181;-74
2021/12/31 08:00:25;;;;;;;3.60;3.30;;;;;;;;;;4934434;29;20214;-74
2021/12/31 08:02:50;;;;;;;5.37;2.90;;;;;;;;;;4934794;29;20187;-74
2021/12/31 08:05:16;;;;;;;3.90;2.90;;;;;;;;;;4933809;29;20187;-74
2021/12/31 08:07:41;;;;;;;4.47;3.03;;;;;;;;;;4934905;29;20283;-75
2021/12/31 08:10:07;;;;;;;4.33;2.87;;;;;;;;;;4948097;28;20234;-74
2021/12/31 08:12:33;;;;;;;4.23;3.47;;;;;;;;;;4934133;29;20180;-74
2021/12/31 08:14:58;;;;;;;10.23;3.10;;;;;;;;;;4931601;29;20182;-74
2021/12/31 08:17:23;;;;;;;6.77;3.17;;;;;;;;;;4933828;29;20208;-74
2021/12/31 08:19:48;;;;;;;4.23;2.90;;;;;;;;;;4934885;29;20189;-74
2021/12/31 08:22:14;;;;;;;5.57;3.63;;;;;;;;;;4947280;28;20188;-74
2021/12/31 08:24:39;;;;;;;5.37;3.77;;;;;;;;;;4931155;29;20194;-75
2021/12/31 08:27:04;;;;;;;10.67;4.97;;;;;;;;;;4946443;28;20192;-74
2021/12/31 08:29:29;;;;;;;6.90;3.60;;;;;;;;;;4932391;29;20340;-74
2021/12/31 08:31:54;;;;;;;8.27;3.93;;;;;;;;;;4933113;29;20193;-74
2021/12/31 08:34:20;;;;;;;12.50;4.50;;;;;;;;;;4943725;29;20236;-74
2021/12/31 08:36:45;;;;;;;10.30;3.87;;;;;;;;;;4936837;29;20204;-75
2021/12/31 08:39:10;;;;;;;8.00;4.07;;;;;;;;;;4950465;29;20180;-74
2021/12/31 08:41:36;;;;;;;7.10;3.67;;;;;;;;;;4952881;28;20187;-74
2021/12/31 08:44:02;;;;;;;7.70;4.20;;;;;;;;;;4941158;28;20192;-74
2021/12/31 08:46:27;;;;;;;7.90;4.27;;;;;;;;;;4953571;29;20187;-74
2021/12/31 08:48:53;;;;;;;7.20;4.63;;;;;;;;;;4951568;29;20184;-74
2021/12/31 08:51:18;;;;;;;9.10;4.40;;;;;;;;;;4936579;29;20185;-74
2021/12/31 08:53:43;;;;;;;8.53;4.57;;;;;;;;;;4953450;29;20208;-74
2021/12/31 08:56:09;;;;;;;8.37;4.03;;;;;;;;;;4953176;28;20227;-74
2021/12/31 08:58:34;;;;;;;12.10;4.57;;;;;;;;;;4956570;28;20262;-74
2021/12/31 09:00:59;;;;;;;8.83;4.00;;;;;;;;;;4941092;29;20184;-74
2021/12/31 09:03:24;;;;;;;8.83;4.60;;;;;;;;;;4957267;29;20187;-74
2021/12/31 09:05:50;;;;;;;12.93;8.27;;;;;;;;;;4957231;28;20184;-74
2021/12/31 09:08:15;;;;;;;16.03;9.57;;;;;;;;;;4940903;29;20192;-74
2021/12/31 09:10:40;;;;;;;7.67;4.80;;;;;;;;;;4948846;28;20204;-74
2021/12/31 09:13:05;;;;;;;8.83;4.60;;;;;;;;;;4939242;29;20210;-74
2021/12/31 09:15:31;;;;;;;8.03;4.97;;;;;;;;;;4960938;28;20187;-74
2021/12/31 09:17:56;;;;;;;9.37;4.67;;;;;;;;;;4940988;29;20181;-74
2021/12/31 09:20:21;;;;;;;7.47;4.50;;;;;;;;;;4944150;28;20270;-74
2021/12/31 09:22:47;;;;;;;9.90;4.50;;;;;;;;;;4955000;28;20195;-74
2021/12/31 09:25:12;;;;;;;11.40;5.23;;;;;;;;;;4938944;29;20193;-74
2021/12/31 09:27:37;;;;;;;9.27;4.70;;;;;;;;;;4938652;29;20190;-74
2021/12/31 09:30:03;;;;;;;8.50;4.17;;;;;;;;;;4947005;29;20256;-74
2021/12/31 09:32:28;;;;;;;9.93;5.00;;;;;;;;;;4939727;29;20184;-74
2021/12/31 09:34:53;;;;;;;11.07;5.93;;;;;;;;;;4936001;29;20230;-74
2021/12/31 09:37:19;;;;;;;18.33;11.50;;;;;;;;;;4936927;29;20183;-74
2021/12/31 09:39:44;;;;;;;19.30;14.57;;;;;;;;;;4937040;29;20186;-74
2021/12/31 09:42:09;;;;;;;14.50;5.90;;;;;;;;;;4939575;29;20177;-74
2021/12/31 09:44:35;;;;;;;9.57;4.90;;;;;;;;;;4936084;29;20183;-74
2021/12/31 09:47:02;;;;;;;15.53;12.80;;;;;;;;;;4936043;29;20183;-75
2021/12/31 09:49:28;;;;;;;10.63;5.83;;;;;;;;;;4937048;29;20207;-74
2021/12/31 09:51:53;;;;;;;6.13;3.90;;;;;;;;;;4935507;29;20194;-74
2021/12/31 09:54:22;;;;;;;13.30;4.27;;;;;;;;;;4937297;29;20243;-75
2021/12/31 09:56:47;;;;;;;7.83;3.80;;;;;;;;;;4936244;29;20201;-74
2021/12/31 09:59:12;;;;;;;7.47;4.13;;;;;;;;;;4939738;29;20273;-74
2021/12/31 10:01:46;;;;;;;8.23;5.30;;;;;;;;;;4935715;29;20196;-74
2021/12/31 10:04:12;;;;;;;7.53;3.83;;;;;;;;;;4939952;28;20267;-74
2021/12/31 10:06:37;;;;;;;6.13;4.47;;;;;;;;;;4936135;29;20280;-75
2021/12/31 10:09:03;;;;;;;9.50;4.63;;;;;;;;;;4935466;29;20193;-74
2021/12/31 10:11:28;;;;;;;10.20;4.10;;;;;;;;;;4941306;29;20188;-74
2021/12/31 10:14:00;;;;;;;10.43;5.03;;;;;;;;;;4936914;29;20220;-74
2021/12/31 10:16:33;;;;;;;7.73;3.73;;;;;;;;;;4934828;29;20213;-74
2021/12/31 10:19:07;;;;;;;8.87;4.90;;;;;;;;;;4950649;29;20205;-74
2021/12/31 10:21:41;;;;;;;6.53;4.57;;;;;;;;;;4939336;29;20182;-74
2021/12/31 10:24:25;;;;;;;7.70;4.60;;;;;;;;;;4936594;28;20220;-74
2021/12/31 10:26:51;;;;;;;6.87;5.37;;;;;;;;;;4938318;29;20189;-74
2021/12/31 10:29:16;;;;;;;6.03;4.40;;;;;;;;;;4935560;29;20215;-75
2021/12/31 10:31:43;;;;;;;9.87;4.80;;;;;;;;;;4936513;29;20188;-74
2021/12/31 10:34:23;;;;;;;6.90;4.00;;;;;;;;;;4942405;29;20242;-74
2021/12/31 10:36:48;;;;;;;6.23;4.13;;;;;;;;;;4938065;29;20244;-74
2021/12/31 10:39:22;;;;;;;6.43;4.10;;;;;;;;;;4960409;28;20397;-74
2021/12/31 10:42:03;;;;;;;6.60;4.50;;;;;;;;;;4954001;28;20226;-75
2021/12/31 10:44:41;;;;;;;7.57;4.53;;;;;;;;;;4960500;28;20187;-74
2021/12/31 10:47:07;;;;;;;6.90;4.37;;;;;;;;;;4939651;29;20184;-74
2021/12/31 10:49:36;;;;;;;6.93;4.57;;;;;;;;;;4953333;29;20209;-74
2021/12/31 10:52:05;;;;;;;6.00;4.33;;;;;;;;;;4953626;28;20177;-75
2021/12/31 10:56:56;;;;;;;7.83;5.03;;;;;;;;;;4956408;29;20181;-75
2021/12/31 10:59:21;;;;;;;8.80;5.27;;;;;;;;;;4938181;29;20236;-75
2021/12/31 11:01:47;;;;;;;5.70;4.20;;;;;;;;;;4938595;29;20195;-75
2021/12/31 11:04:12;;;;;;;4.77;4.10;;;;;;;;;;4950814;28;20187;-75
2021/12/31 11:06:40;;;;;;;8.00;5.17;;;;;;;;;;4934833;29;20188;-75
2021/12/31 11:09:07;;;;;;;7.73;5.13;;;;;;;;;;4938244;29;20207;-75
2021/12/31 11:11:32;;;;;;;6.20;4.33;;;;;;;;;;4940780;29;20205;-75
2021/12/31 11:13:59;;;;;;;5.73;4.07;;;;;;;;;;4938544;29;20181;-75
2021/12/31 11:16:25;;;;;;;4.70;3.53;;;;;;;;;;4932241;28;20177;-75
2021/12/31 11:18:50;;;;;;;7.80;5.30;;;;;;;;;;4955881;28;20190;-75
2021/12/31 11:21:16;;;;;;;7.80;6.03;;;;;;;;;;4937552;28;20183;-75
2021/12/31 11:23:43;;;;;;;4.53;3.50;;;;;;;;;;4952133;28;20181;-75
2021/12/31 11:26:13;;;;;;;4.20;3.33;;;;;;;;;;4953737;28;20189;-75
2021/12/31 11:28:42;;;;;;;5.30;3.73;;;;;;;;;;4940356;29;20184;-75
2021/12/31 11:31:20;;;;;;;4.70;3.90;;;;;;;;;;4939033;28;20214;-74
2021/12/31 11:33:46;;;;;;;5.30;4.03;;;;;;;;;;4956232;28;20249;-75
2021/12/31 11:36:12;;;;;;;4.73;3.70;;;;;;;;;;4933183;28;20185;-75
2021/12/31 11:38:39;;;;;;;5.33;3.23;;;;;;;;;;4945608;28;20182;-75
2021/12/31 11:41:08;;;;;;;3.47;3.00;;;;;;;;;;4954318;28;20182;-75
2021/12/31 11:43:38;;;;;;;3.77;2.97;;;;;;;;;;4952490;28;20192;-75
2021/12/31 11:46:12;;;;;;;4.47;3.80;;;;;;;;;;4954017;28;20212;-75
2021/12/31 11:48:52;;;;;;;3.93;3.53;;;;;;;;;;4934899;29;20182;-75
2021/12/31 11:51:19;;;;;;;4.60;3.40;;;;;;;;;;4949942;28;20493;-75
2021/12/31 11:53:59;;;;;;;5.97;3.83;;;;;;;;;;4952825;28;21874;-75
2021/12/31 11:56:36;;;;;;;5.67;5.07;;;;;;;;;;4953149;28;20204;-75
2021/12/31 11:59:14;;;;;;;3.40;3.07;;;;;;;;;;4947041;29;20206;-75
2021/12/31 12:01:48;;;;;;;2.03;1.83;;;;;;;;;;4956806;28;20212;-75
2021/12/31 12:04:22;;;;;;;1.20;1.10;;;;;;;;;;4948402;29;20177;-75
2021/12/31 12:06:53;;;;;;;1.00;1.00;;;;;;;;;;4947474;28;20189;-74
2021/12/31 12:09:19;;;;;;;0.63;0.63;;;;;;;;;;4939127;29;20218;-75
2021/12/31 12:12:00;;;;;;;0.73;0.53;;;;;;;;;;4954394;28;20193;-75
2021/12/31 12:14:28;;;;;;;0.60;0.60;;;;;;;;;;4954058;28;20179;-75
2021/12/31 12:16:55;;;;;;;0.67;0.67;;;;;;;;;;4951701;29;20179;-75
2021/12/31 12:19:20;;;;;;;0.73;0.70;;;;;;;;;;4937362;29;20186;-75
2021/12/31 12:21:51;;;;;;;1.07;0.90;;;;;;;;;;4937945;29;20181;-74
2021/12/31 12:24:22;;;;;;;0.30;0.30;;;;;;;;;;4936005;29;20191;-75
2021/12/31 12:26:47;;;;;;;0.53;0.53;;;;;;;;;;4952793;28;20189;-74
2021/12/31 12:29:23;;;;;;;0.40;0.40;;;;;;;;;;4937457;28;20185;-75
2021/12/31 12:32:05;;;;;;;0.90;0.90;;;;;;;;;;4949388;28;20182;-75
2021/12/31 12:34:30;;;;;;;0.37;0.37;;;;;;;;;;4956294;28;20230;-75
2021/12/31 12:36:56;;;;;;;1.00;0.90;;;;;;;;;;4952817;28;20190;-75
2021/12/31 12:39:21;;;;;;;0.87;0.87;;;;;;;;;;4943320;28;20265;-75
2021/12/31 12:41:50;;;;;;;1.53;1.03;;;;;;;;;;4939127;28;20218;-75
2021/12/31 12:44:16;;;;;;;2.23;2.03;;;;;;;;;;4953519;28;20209;-75
2021/12/31 12:46:56;;;;;;;2.50;2.30;;;;;;;;;;4935901;29;20254;-74
2021/12/31 12:49:23;;;;;;;1.77;1.53;;;;;;;;;;4957484;28;20258;-75
2021/12/31 12:51:49;;;;;;;1.70;1.47;;;;;;;;;;4942830;28;20242;-75
2021/12/31 12:54:21;;;;;;;1.63;1.40;;;;;;;;;;4956974;28;20182;-75
2021/12/31 12:56:47;;;;;;;1.50;1.40;;;;;;;;;;4952763;29;20166;-75
2021/12/31 12:59:19;;;;;;;1.93;1.73;;;;;;;;;;4937227;29;20213;-75
2021/12/31 13:01:48;;;;;;;1.50;1.40;;;;;;;;;;4952575;29;20181;-75
2021/12/31 13:04:14;;;;;;;1.47;1.37;;;;;;;;;;4951478;28;20277;-75
2021/12/31 13:06:42;;;;;;;1.60;1.50;;;;;;;;;;4935437;29;20215;-75
2021/12/31 13:09:10;;;;;;;1.60;1.50;;;;;;;;;;4958360;28;20179;-75
2021/12/31 13:11:37;;;;;;;1.67;1.57;;;;;;;;;;4933348;29;20178;-75
2021/12/31 13:14:03;;;;;;;1.30;1.20;;;;;;;;;;4941475;28;20213;-75
2021/12/31 13:16:28;;;;;;;2.00;1.63;;;;;;;;;;4952789;28;20214;-75
2021/12/31 13:18:55;;;;;;;2.90;1.63;;;;;;;;;;4934092;29;20184;-75
2021/12/31 13:21:21;;;;;;;2.27;1.80;;;;;;;;;;4934867;28;20191;-75
2021/12/31 13:23:51;;;;;;;1.90;1.60;;;;;;;;;;4939249;28;20170;-75
2021/12/31 13:26:16;;;;;;;3.27;2.97;;;;;;;;;;4929871;28;20179;-74
2021/12/31 13:28:41;;;;;;;3.97;2.30;;;;;;;;;;4939272;29;20214;-75
2021/12/31 13:31:09;;;;;;;2.63;2.43;;;;;;;;;;4953280;28;20237;-75
2021/12/31 13:33:41;;;;;;;2.20;2.00;;;;;;;;;;4953686;28;20231;-75
2021/12/31 13:36:14;;;;;;;2.20;2.00;;;;;;;;;;4933152;29;20180;-75
2021/12/31 13:38:58;;;;;;;2.20;1.80;;;;;;;;;;4953355;28;20210;-75
2021/12/31 13:41:24;;;;;;;2.23;2.03;;;;;;;;;;4954497;28;20214;-75
2021/12/31 13:43:52;;;;;;;2.23;1.53;;;;;;;;;;4944861;28;20213;-75
2021/12/31 13:46:18;;;;;;;1.97;1.73;;;;;;;;;;4941414;29;20183;-75
2021/12/31 13:48:43;;;;;;;2.00;1.80;;;;;;;;;;4954911;28;20199;-75
2021/12/31 13:51:27;;;;;;;2.83;1.60;;;;;;;;;;4941322;28;20211;-74
2021/12/31 13:53:53;;;;;;;2.10;1.90;;;;;;;;;;4956087;28;20185;-75
2021/12/31 13:56:18;;;;;;;1.60;1.50;;;;;;;;;;4938035;29;20190;-75
2021/12/31 13:58:43;;;;;;;1.50;1.40;;;;;;;;;;4955609;28;20254;-75
2021/12/31 14:01:14;;;;;;;1.40;1.30;;;;;;;;;;4938863;29;20210;-75
2021/12/31 14:03:40;;;;;;;2.43;1.50;;;;;;;;;;4934560;29;20187;-75
2021/12/31 14:06:14;;;;;;;1.83;1.40;;;;;;;;;;4943218;28;20215;-75
2021/12/31 14:11:04;;;;;;;2.00;1.83;;;;;;;;;;4956461;28;20234;-75
2021/12/31 14:13:30;;;;;;;1.40;1.30;;;;;;;;;;4956691;29;20382;-75
2021/12/31 14:15:55;;;;;;;2.43;1.40;;;;;;;;;;4956693;28;20219;-75
2021/12/31 14:18:20;;;;;;;1.50;1.40;;;;;;;;;;4941342;29;20181;-75
2021/12/31 14:20:45;;;;;;;1.33;1.23;;;;;;;;;;4940326;28;20260;-75
2021/12/31 14:23:12;;;;;;;1.80;1.43;;;;;;;;;;4938442;28;20199;-75
2021/12/31 14:25:40;;;;;;;2.03;1.30;;;;;;;;;;4956005;28;20187;-75
2021/12/31 14:28:05;;;;;;;1.30;1.20;;;;;;;;;;4942507;28;20187;-75
2021/12/31 14:30:31;;;;;;;1.30;1.20;;;;;;;;;;4942269;28;20213;-75
2021/12/31 14:32:58;;;;;;;1.20;1.00;;;;;;;;;;4945549;28;20183;-74
2021/12/31 14:35:28;;;;;;;0.90;0.90;;;;;;;;;;4933174;29;20320;-75
2021/12/31 14:37:54;;;;;;;1.50;1.40;;;;;;;;;;4936076;28;20240;-75
2021/12/31 14:40:21;;;;;;;1.13;1.03;;;;;;;;;;4933776;29;20189;-75
2021/12/31 14:42:47;;;;;;;0.97;0.90;;;;;;;;;;4935660;29;20265;-75
2021/12/31 14:45:13;;;;;;;1.03;1.03;;;;;;;;;;4944341;29;20190;-75
2021/12/31 14:47:39;;;;;;;3.20;1.40;;;;;;;;;;4938476;29;20249;-75
2021/12/31 14:50:05;;;;;;;3.23;2.63;;;;;;;;;;4936783;29;20239;-75
2021/12/31 14:52:30;;;;;;;8.63;7.73;;;;;;;;;;4939199;29;20178;-75
2021/12/31 14:54:55;;;;;;;2.27;2.07;;;;;;;;;;4938895;29;20193;-74